Latest Coastal Weather Observations for Robe Airport

IDV60701

Issued at 5:11 am EST Monday 20 April 2015 (issued every 10 minutes, with the page automatically refreshed every 10 minutes)

About coastal observations | Map of coastal stations | Coastal observations for VIC | Marine services | Other Formats
Station Details ID: 026105 Name: ROBE AIRFIELD Lat: -37.18 Lon: 139.81 Height: 3.0 m
Data from the previous 72 hours. | See also: Recent months at Robe Airport
Date/Time
EST
Temp

°C
Wind Pressure Rain
since 9am
mm
Weather Cloud Vis
km
Sea
Height
m
Swell
Dir
 
Speed
knots
Gust
knots
hPa Trend Height
m
Period
s
Dir
20/05:00am 4.2 CALM 0 0 1038.5 - 0.0 - - - - - - -
20/04:30am 4.7 CALM 0 0 1038.3 - 0.0 - - - - - - -
20/04:00am 5.6 CALM 0 0 1038.1 - 0.0 - - - - - - -
20/03:30am 4.3 ESE 1 2 1038.1 - 0.0 - - - - - - -
20/03:00am 4.9 CALM 0 0 1038.2 - 0.0 - - - - - - -
20/02:30am 5.5 CALM 0 0 1038.3 - 0.0 - - - - - - -
20/02:00am 8.0 ESE 1 1 1038.3 - 0.0 - - - - - - -
20/01:30am 8.3 ESE 2 2 1038.4 - 0.0 - - - - - - -
20/01:00am 8.7 ESE 2 3 1038.2 - 0.0 - - - - - - -
20/12:30am 8.4 ESE 2 4 1038.3 - 0.0 - - - - - - -
20/12:00am 8.1 ESE 2 3 1038.2 - 0.0 - - - - - - -
 
Date/Time
EST
Temp

°C
Wind Pressure Rain
since 9am
mm
Weather Cloud Vis
km
Sea
Height
m
Swell
Dir
 
Speed
knots
Gust
knots
hPa Trend Height
m
Period
s
Dir
19/11:30pm 8.3 ESE 1 1 1038.4 - 0.0 - - - - - - -
19/11:00pm 7.7 ESE 3 4 1038.5 - 0.0 - - - - - - -
19/10:30pm 7.7 ESE 2 3 1038.3 - 0.0 - - - - - - -
19/10:00pm 7.0 ESE 3 3 1038.2 - 0.0 - - - - - - -
19/09:30pm 6.2 SE 1 1 1038.0 - 0.0 - - - - - - -
19/09:00pm 7.4 SE 2 2 1037.6 - 0.0 - - - - - - -
19/08:30pm 8.7 SE 1 1 1037.3 - 0.0 - - - - - - -
19/08:00pm 9.3 SE 4 6 1036.9 - 0.0 - - - - - - -
19/07:30pm 9.9 SE 4 6 1036.6 - 0.0 - - - - - - -
19/07:00pm 10.9 SSE 4 6 1036.1 - 0.0 - - - - - - -
19/06:30pm 11.2 SSE 6 9 1035.8 - 0.0 - - - - - - -
19/06:00pm 11.8 SSE 8 11 1035.6 - 0.0 - - - - - - -
19/05:30pm 12.6 SSE 13 20 1035.2 - 0.0 - - - - - - -
19/05:00pm 13.6 S 12 16 1034.9 - 0.0 - - - - - - -
19/04:30pm 14.1 SSE 12 19 1034.6 - 0.0 - - - - - - -
19/04:00pm 15.3 SSE 12 17 1034.3 - 0.0 - - - - - - -
19/03:30pm 14.1 SSE 14 21 1034.1 - 0.0 - - - - - - -
19/03:00pm 14.3 SSE 15 23 1034.0 - 0.0 - - - - - - -
19/02:30pm 13.9 SSE 15 22 1034.0 - 0.0 - - - - - - -
19/02:00pm 14.8 SSE 14 19 1033.7 - 0.0 - - - - - - -
19/01:30pm 14.4 S 16 22 1033.5 - 0.0 - - - - - - -
19/01:00pm 14.8 S 17 23 1033.5 - 0.0 - - - - - - -
19/12:30pm 14.1 SE 10 16 1033.6 - 0.0 - - - - - - -
19/12:00pm 12.6 S 15 22 1034.0 - 0.0 - - - - - - -
19/11:30am 14.5 S 16 23 1033.6 - 0.0 - - - - - - -
19/11:00am 13.1 S 15 23 1033.3 - 0.0 - - - - - - -
19/10:30am 13.7 S 16 20 1033.0 - 0.0 - - - - - - -
19/10:00am 13.6 S 14 21 1032.6 - 0.0 - - - - - - -
19/09:30am 13.3 S 16 23 1032.0 - 3.6 - - - - - - -
19/09:00am 12.4 S 11 17 1031.7 - 3.6 - - - - - - -
19/08:30am 10.6 SSE 9 15 1031.2 - 3.6 - - - - - - -
19/08:00am 10.7 S 14 18 1030.3 - 3.6 - - - - - - -
19/07:30am 9.6 S 9 11 1029.5 - 3.6 - - - - - - -
19/07:00am 9.8 S 11 14 1028.8 - 3.6 - - - - - - -
19/06:30am 8.7 SSE 17 26 1028.4 - 3.6 Rain - - - - - -
19/06:27am 8.6 SSE 19 29 1028.5 - 3.2 - - - - - - -
19/06:14am 10.0 S 12 28 1027.9 - 2.6 - - - - - - -
19/06:00am 10.5 S 11 15 1027.7 - 2.6 - - - - - - -
19/05:30am 10.2 SSW 17 24 1027.2 - 2.6 - - - - - - -
19/05:15am 10.8 SSW 15 26 1026.9 - 2.6 - - - - - - -
19/05:00am 10.8 S 12 17 1026.6 - 2.6 - - - - - - -
19/04:30am 10.1 S 13 18 1026.2 - 2.6 - - - - - - -
19/04:10am 9.7 SW 15 25 1026.0 - 2.4 - - - - - - -
19/04:00am 10.9 SSW 16 25 1025.8 - 2.0 - - - - - - -
19/03:30am 11.6 SSW 15 23 1025.3 - 2.0 - - - - - - -
19/03:00am 11.4 SSW 11 20 1025.2 - 2.0 - - - - - - -
19/02:38am 11.6 SSW 15 26 1025.2 - 2.0 - - - - - - -
19/02:30am 11.7 S 18 26 1024.9 - 2.0 - - - - - - -
19/02:00am 11.8 SSW 12 19 1024.6 - 2.0 - - - - - - -
19/01:30am 11.6 S 13 18 1024.4 - 2.0 - - - - - - -
19/01:00am 11.3 SSW 13 19 1024.1 - 2.0 - - - - - - -
19/12:30am 12.3 SSW 13 20 1023.6 - 2.0 - - - - - - -
19/12:00am 12.3 SSW 15 22 1023.3 - 2.0 - - - - - - -
 
Date/Time
EST
Temp

°C
Wind Pressure Rain
since 9am
mm
Weather Cloud Vis
km
Sea
Height
m
Swell
Dir
 
Speed
knots
Gust
knots
hPa Trend Height
m
Period
s
Dir
18/11:30pm 11.9 SW 16 22 1023.1 - 2.0 - - - - - - -
18/11:00pm 12.3 SSW 14 21 1022.8 - 2.0 - - - - - - -
18/10:30pm 12.4 SSW 13 23 1022.4 - 2.0 - - - - - - -
18/10:00pm 12.4 SSW 15 23 1022.0 - 2.0 - - - - - - -
18/09:30pm 13.0 SSW 14 22 1021.5 - 2.0 Recent precip. - - - - - -
18/09:00pm 12.1 SSW 12 18 1020.8 - 2.0 - - - - - - -
18/08:32pm 12.1 SW 16 31 1020.5 - 1.8 - - - - - - -
18/08:30pm 13.4 SW 14 31 1020.3 - 1.4 - - - - - - -
18/08:00pm 13.0 SW 12 18 1019.8 - 1.4 - - - - - - -
18/07:48pm 13.3 SW 15 25 1019.6 - 1.4 - - - - - - -
18/07:30pm 13.0 SSW 12 23 1019.3 - 1.4 - - - - - - -
18/07:00pm 13.1 SW 13 20 1018.6 - 1.4 - - - - - - -
18/06:31pm 13.3 SW 16 27 1018.0 - 1.4 - - - - - - -
18/06:30pm 13.3 SW 15 22 1018.0 - 1.4 - - - - - - -
18/06:00pm 13.8 SW 13 20 1017.4 - 1.4 - - - - - - -
18/05:30pm 14.1 SW 15 22 1016.7 - 1.4 - - - - - - -
18/05:00pm 14.3 SW 15 23 1016.3 - 1.4 - - - - - - -
18/04:30pm 14.1 SW 13 20 1015.7 - 1.4 - - - - - - -
18/04:00pm 13.4 SW 11 16 1015.7 - 1.4 - - - - - - -
18/03:30pm 13.9 SW 10 17 1015.2 - 1.4 Recent precip. - - - - - -
18/03:00pm 13.2 SW 10 15 1015.0 - 1.4 - - - - - - -
18/02:30pm 13.1 SW 14 23 1014.5 - 1.2 - - - - - - -
18/02:00pm 13.3 SW 14 23 1014.3 - 1.0 - - - - - - -
18/01:30pm 13.6 SSW 15 20 1014.1 - 0.6 - - - - - - -
18/01:20pm 13.8 SW 15 25 1014.0 - 0.6 - - - - - - -
18/01:00pm 13.8 SSW 15 25 1013.8 - 0.6 - - - - - - -
18/12:30pm 17.1 NW 16 25 1013.2 - 0.0 - - - - - - -
18/12:00pm 18.2 NW 15 23 1013.7 - 0.0 - - - - - - -
18/11:30am 19.0 NW 18 25 1013.9 - 0.0 - - - - - - -
18/11:00am 18.6 NW 17 24 1014.0 - 0.0 - - - - - - -
18/10:30am 17.6 NW 16 23 1014.0 - 0.0 - - - - - - -
18/10:00am 17.0 NW 15 22 1014.2 - 0.0 - - - - - - -
18/09:30am 16.9 NW 15 21 1014.4 - 0.0 - - - - - - -
18/09:00am 16.9 NW 15 22 1014.1 - 0.0 - - - - - - -
18/08:30am 16.0 NW 17 23 1014.2 - 0.0 - - - - - - -
18/08:00am 15.6 NW 14 19 1014.0 - 0.0 - - - - - - -
18/07:30am 14.9 NW 13 18 1013.8 - 0.0 - - - - - - -
18/07:00am 14.8 NW 13 18 1013.9 - 0.0 - - - - - - -
18/06:30am 14.8 NW 13 19 1013.8 - 0.0 - - - - - - -
18/06:00am 14.5 WNW 11 16 1013.7 - 0.0 - - - - - - -
18/05:30am 14.0 NW 9 14 1013.5 - 0.0 - - - - - - -
18/05:00am 14.0 NW 11 16 1013.5 - 0.0 - - - - - - -
18/04:30am 13.5 WNW 9 12 1013.4 - 0.0 - - - - - - -
18/04:00am 13.4 WNW 8 11 1013.6 - 0.0 - - - - - - -
18/03:30am 13.6 WNW 8 12 1013.7 - 0.0 - - - - - - -
18/03:00am 13.5 WNW 7 10 1014.0 - 0.0 - - - - - - -
18/02:30am 13.6 WNW 7 11 1014.3 - 0.0 - - - - - - -
18/02:00am 13.2 WNW 6 11 1014.5 - 0.0 - - - - - - -
18/01:30am 12.5 W 5 7 1014.8 - 0.0 - - - - - - -
18/01:00am 11.2 WNW 3 4 1015.0 - 0.0 - - - - - - -
18/12:30am 11.1 WSW 3 3 1015.2 - 0.0 - - - - - - -
18/12:00am 11.9 WSW 2 3 1015.5 - 0.0 - - - - - - -
 
Date/Time
EST
Temp

°C
Wind Pressure Rain
since 9am
mm
Weather Cloud Vis
km
Sea
Height
m
Swell
Dir
 
Speed
knots
Gust
knots
hPa Trend Height
m
Period
s
Dir
17/11:30pm 12.9 WSW 1 2 1015.9 - 0.0 - - - - - - -
17/11:00pm 13.6 WSW 2 3 1016.5 - 0.0 - - - - - - -
17/10:30pm 13.3 CALM 0 0 1016.7 - 0.0 - - - - - - -
17/10:00pm 13.3 CALM 0 0 1016.6 - 0.0 - - - - - - -
17/09:30pm 13.3 CALM 0 0 1016.5 - 0.0 - - - - - - -
17/09:00pm 13.4 CALM 0 0 1016.4 - 0.0 - - - - - - -
17/08:30pm 13.7 CALM 0 0 1016.5 - 0.0 - - - - - - -
17/08:00pm 13.8 CALM 0 0 1016.8 - 0.0 - - - - - - -
17/07:30pm 13.9 SW 2 5 1016.8 - 0.0 - - - - - - -
17/07:00pm 14.0 SW 3 5 1016.8 - 0.0 - - - - - - -
17/06:30pm 14.2 SW 4 6 1016.6 - 0.0 - - - - - - -
17/06:00pm 14.4 SSW 4 6 1016.4 - 0.0 - - - - - - -
17/05:30pm 14.5 SW 4 6 1016.7 - 0.0 - - - - - - -
17/05:00pm 14.9 SW 4 5 1016.6 - 0.0 - - - - - - -
17/04:30pm 15.3 SW 6 9 1016.5 - 0.0 - - - - - - -
17/04:00pm 15.7 SW 5 9 1016.8 - 0.0 - - - - - - -
17/03:30pm 16.4 WNW 2 6 1017.0 - 0.0 - - - - - - -
17/03:00pm 16.8 NNE 1 2 1017.2 - 0.0 - - - - - - -
17/02:30pm 16.2 NNE 3 6 1017.5 - 0.0 - - - - - - -
17/02:00pm 16.1 N 4 5 1018.1 - 0.0 - - - - - - -
17/01:30pm 15.9 NNE 5 8 1018.6 - 0.0 - - - - - - -
17/01:00pm 16.0 NNE 6 8 1019.3 - 0.0 - - - - - - -
17/12:30pm 15.6 ENE 5 8 1019.7 - 0.0 - - - - - - -
17/12:00pm 15.3 NE 6 8 1020.4 - 0.0 - - - - - - -
17/11:30am 14.6 ENE 5 9 1021.2 - 0.0 - - - - - - -
17/11:00am 14.0 ENE 6 8 1021.6 - 0.0 - - - - - - -
17/10:30am 13.5 ESE 8 10 1021.9 - 0.0 - - - - - - -
17/10:00am 13.2 ESE 6 10 1022.4 - 0.0 - - - - - - -
17/09:30am 12.6 ESE 6 9 1022.6 - - - - - - - - -
17/09:00am 12.1 ESE 5 8 1022.7 - - - - - - - - -
17/08:30am 10.8 SE 4 5 1022.9 - - - - - - - - -
17/08:00am 9.9 SE 4 5 1022.8 - - - - - - - - -
17/07:30am 9.6 SSE 3 3 1023.2 - - - - - - - - -
17/07:00am 9.4 SE 2 3 1023.4 - - - - - - - - -
17/06:30am 9.2 SSE 3 4 1023.4 - - - - - - - - -
17/06:00am 9.6 SSE 2 2 1023.4 - - - - - - - - -

Other Formats:

Comma delimited format used in spreadsheet applications
http://www.bom.gov.au/fwo/IDV60701/IDV60701.95816.axf

JavaScript Object Notation format (JSON) in row-major order
http://www.bom.gov.au/fwo/IDV60701/IDV60701.95816.json